createdAt,value
2017-06-24T00:00:40.163Z,0
2017-06-24T00:01:20.698Z,0
2017-06-24T00:02:01.245Z,0
2017-06-24T00:02:41.795Z,0
2017-06-24T00:03:22.329Z,0
2017-06-24T00:04:02.845Z,0
2017-06-24T00:04:43.380Z,0
2017-06-24T00:05:23.921Z,0
2017-06-24T00:06:04.453Z,0
2017-06-24T00:06:45.007Z,0
2017-06-24T00:07:25.549Z,0
2017-06-24T00:08:06.082Z,0
2017-06-24T00:08:46.630Z,0
2017-06-24T00:09:27.156Z,0
2017-06-24T00:10:07.696Z,0
2017-06-24T00:10:48.236Z,0
2017-06-24T00:11:28.771Z,0
2017-06-24T00:12:09.309Z,0
2017-06-24T00:12:49.859Z,0
2017-06-24T00:13:30.417Z,0
2017-06-24T00:14:10.956Z,0
2017-06-24T00:14:51.492Z,0
2017-06-24T00:15:32.024Z,0
2017-06-24T00:16:12.561Z,0
2017-06-24T00:16:53.101Z,0
2017-06-24T00:17:33.644Z,0
2017-06-24T00:18:14.209Z,0
2017-06-24T00:18:54.749Z,0
2017-06-24T00:19:35.271Z,0
2017-06-24T00:20:15.824Z,0
2017-06-24T00:20:56.377Z,0
2017-06-24T00:21:36.916Z,0
2017-06-24T00:22:17.464Z,0
2017-06-24T00:22:58.003Z,0
2017-06-24T00:23:38.565Z,0
2017-06-24T00:24:19.107Z,0
2017-06-24T00:24:59.658Z,0
2017-06-24T00:25:40.197Z,0
2017-06-24T00:26:20.728Z,0
2017-06-24T00:27:01.261Z,0
2017-06-24T00:27:41.805Z,0
2017-06-24T00:28:22.351Z,0
2017-06-24T00:29:02.898Z,0
2017-06-24T00:29:43.436Z,0
2017-06-24T00:30:23.973Z,0
2017-06-24T00:31:04.505Z,0
2017-06-24T00:31:45.034Z,0
2017-06-24T00:32:25.561Z,0
2017-06-24T00:33:06.094Z,0
2017-06-24T00:33:46.636Z,0
2017-06-24T00:34:27.183Z,0
2017-06-24T00:35:07.727Z,0
2017-06-24T00:35:48.268Z,0
2017-06-24T00:36:28.808Z,0
2017-06-24T00:37:09.336Z,0
2017-06-24T00:37:49.876Z,0
2017-06-24T00:38:30.419Z,0
2017-06-24T00:39:10.959Z,0
2017-06-24T00:39:51.502Z,0
2017-06-24T00:40:32.047Z,0
2017-06-24T00:41:12.583Z,0
2017-06-24T00:41:53.122Z,0
2017-06-24T00:42:33.679Z,0
2017-06-24T00:43:14.219Z,0
2017-06-24T00:43:54.765Z,0
2017-06-24T00:44:35.285Z,0
2017-06-24T00:45:15.822Z,0
2017-06-24T00:45:56.365Z,0
2017-06-24T00:46:36.922Z,0
2017-06-24T00:47:17.461Z,0
2017-06-24T00:47:58.004Z,0
2017-06-24T00:48:38.545Z,0
2017-06-24T00:49:19.117Z,0
2017-06-24T00:49:59.648Z,0
2017-06-24T00:50:40.178Z,0
2017-06-24T00:51:20.703Z,0
2017-06-24T00:52:01.244Z,0
2017-06-24T00:52:41.783Z,0
2017-06-24T00:53:22.321Z,0
2017-06-24T00:54:02.855Z,0
2017-06-24T00:54:43.403Z,0
2017-06-24T00:55:23.947Z,0
2017-06-24T00:56:04.491Z,0
2017-06-24T00:56:45.017Z,0
2017-06-24T00:57:25.546Z,0
2017-06-24T00:58:06.087Z,0
2017-06-24T00:58:46.627Z,0
2017-06-24T00:59:27.157Z,0
2017-06-24T01:00:07.688Z,0
2017-06-24T01:00:48.240Z,0
2017-06-24T01:01:28.767Z,0
2017-06-24T01:02:09.300Z,0
2017-06-24T01:02:49.838Z,0
2017-06-24T01:03:30.360Z,0
2017-06-24T01:04:10.904Z,0
2017-06-24T01:04:51.442Z,0
2017-06-24T01:05:31.963Z,0
2017-06-24T01:06:12.499Z,0
2017-06-24T01:06:53.041Z,0
2017-06-24T01:07:33.584Z,0
2017-06-24T01:08:14.125Z,0
2017-06-24T01:08:54.668Z,0
2017-06-24T01:09:35.210Z,0
2017-06-24T01:10:15.751Z,0
2017-06-24T01:10:56.292Z,0
2017-06-24T01:11:36.830Z,0
2017-06-24T01:12:17.371Z,0
2017-06-24T01:12:57.910Z,0
2017-06-24T01:13:38.449Z,0
2017-06-24T01:14:18.995Z,0
2017-06-24T01:14:59.535Z,0
2017-06-24T01:15:40.078Z,0
2017-06-24T01:16:20.621Z,0
2017-06-24T01:17:01.160Z,0
2017-06-24T01:17:41.706Z,0
2017-06-24T01:18:22.236Z,0
2017-06-24T01:19:02.771Z,0
2017-06-24T01:19:43.311Z,0
2017-06-24T01:20:23.881Z,0
2017-06-24T01:21:04.415Z,0
2017-06-24T01:21:44.957Z,0
2017-06-24T01:22:25.499Z,0
2017-06-24T01:23:06.040Z,0
2017-06-24T01:23:46.572Z,0
2017-06-24T01:24:27.118Z,0
2017-06-24T01:25:07.654Z,0
2017-06-24T01:25:48.183Z,0
2017-06-24T01:26:28.714Z,0
2017-06-24T01:27:09.263Z,0
2017-06-24T01:27:49.801Z,0
2017-06-24T01:28:30.340Z,0
2017-06-24T01:29:10.880Z,0
2017-06-24T01:29:51.418Z,0
2017-06-24T01:30:31.949Z,0
2017-06-24T01:31:12.480Z,0
2017-06-24T01:31:53.023Z,0
2017-06-24T01:32:33.550Z,0
2017-06-24T01:33:14.095Z,0
2017-06-24T01:33:54.647Z,0
2017-06-24T01:34:35.185Z,0
2017-06-24T01:35:15.723Z,0
2017-06-24T01:35:56.241Z,0
2017-06-24T01:36:36.782Z,0
2017-06-24T01:37:17.325Z,0
2017-06-24T01:37:57.864Z,0
2017-06-24T01:38:38.403Z,0
2017-06-24T01:39:18.952Z,0
2017-06-24T01:39:59.489Z,0
2017-06-24T01:40:40.027Z,0
2017-06-24T01:41:20.581Z,0
2017-06-24T01:42:01.106Z,0
2017-06-24T01:42:41.637Z,0
2017-06-24T01:43:22.176Z,0
2017-06-24T01:44:02.718Z,0
2017-06-24T01:44:43.261Z,0
2017-06-24T01:45:23.804Z,0
2017-06-24T01:46:04.344Z,0
2017-06-24T01:46:44.889Z,0
2017-06-24T01:47:25.432Z,0
2017-06-24T01:48:05.973Z,0
2017-06-24T01:48:46.506Z,0
2017-06-24T01:49:27.044Z,0
2017-06-24T01:50:07.588Z,0
2017-06-24T01:50:48.127Z,0
2017-06-24T01:51:28.666Z,0
2017-06-24T01:52:09.214Z,0
2017-06-24T01:52:49.751Z,0
2017-06-24T01:53:30.291Z,0
2017-06-24T01:54:10.841Z,0
2017-06-24T01:54:51.394Z,0
2017-06-24T01:55:31.909Z,0
2017-06-24T01:56:12.450Z,0
2017-06-24T01:56:52.990Z,0
2017-06-24T01:57:33.533Z,0
2017-06-24T01:58:14.066Z,0
2017-06-24T01:58:54.611Z,0
2017-06-24T01:59:35.157Z,0
2017-06-24T02:00:15.697Z,0
2017-06-24T02:00:56.240Z,0
2017-06-24T02:01:36.765Z,0
2017-06-24T02:02:17.306Z,0
2017-06-24T02:02:57.845Z,0
2017-06-24T02:03:38.391Z,0
2017-06-24T02:04:18.928Z,0
2017-06-24T02:04:59.475Z,0
2017-06-24T02:05:40.015Z,0
2017-06-24T02:06:20.554Z,0
2017-06-24T02:07:01.100Z,0
2017-06-24T02:07:41.622Z,0
2017-06-24T02:08:22.154Z,0
2017-06-24T02:09:02.694Z,0
2017-06-24T02:09:43.229Z,0
2017-06-24T02:10:23.769Z,0
2017-06-24T02:11:04.313Z,0
2017-06-24T02:11:44.847Z,0
2017-06-24T02:12:25.370Z,0
2017-06-24T02:13:05.911Z,0
2017-06-24T02:13:46.457Z,0
2017-06-24T02:14:26.996Z,0
2017-06-24T02:15:07.536Z,0
2017-06-24T02:15:48.074Z,0
2017-06-24T02:16:28.616Z,0
2017-06-24T02:17:09.154Z,0
2017-06-24T02:17:49.685Z,0
2017-06-24T02:18:30.222Z,0
2017-06-24T02:19:10.763Z,0
2017-06-24T02:19:51.303Z,0
2017-06-24T02:20:31.845Z,0
2017-06-24T02:21:12.388Z,0
2017-06-24T02:21:52.930Z,0
2017-06-24T02:22:33.470Z,0
2017-06-24T02:23:14.009Z,0
2017-06-24T02:23:54.550Z,0
2017-06-24T02:24:35.077Z,0
2017-06-24T02:25:15.616Z,0
2017-06-24T02:25:56.157Z,0
2017-06-24T02:26:36.698Z,0
2017-06-24T02:27:17.234Z,0
2017-06-24T02:27:57.778Z,0
2017-06-24T02:28:38.322Z,0
2017-06-24T02:29:18.855Z,0
2017-06-24T02:29:59.393Z,0
2017-06-24T02:30:39.929Z,0
2017-06-24T02:31:20.472Z,0
2017-06-24T02:32:01.013Z,0
2017-06-24T02:32:41.546Z,0
2017-06-24T02:33:22.089Z,0
2017-06-24T02:34:02.620Z,0
2017-06-24T02:34:43.163Z,0
2017-06-24T02:35:23.694Z,0
2017-06-24T02:36:04.227Z,0
2017-06-24T02:36:44.768Z,0
2017-06-24T02:37:25.309Z,0
2017-06-24T02:38:05.858Z,0
2017-06-24T02:38:46.396Z,0
2017-06-24T02:39:26.943Z,0
2017-06-24T02:40:07.484Z,0
2017-06-24T02:40:48.025Z,0
2017-06-24T02:41:28.565Z,0
2017-06-24T02:42:09.095Z,0
2017-06-24T02:42:49.635Z,0
2017-06-24T02:43:30.177Z,0
2017-06-24T02:44:10.716Z,0
2017-06-24T02:44:51.261Z,0
2017-06-24T02:45:31.801Z,0
2017-06-24T02:46:12.352Z,0
2017-06-24T02:46:52.890Z,0
2017-06-24T02:47:33.433Z,0
2017-06-24T02:48:13.972Z,0
2017-06-24T02:48:54.518Z,0
2017-06-24T02:49:35.055Z,0
2017-06-24T02:50:15.593Z,0
2017-06-24T02:50:56.134Z,0
2017-06-24T02:51:36.674Z,0
2017-06-24T02:52:17.219Z,0
2017-06-24T02:52:57.759Z,0
2017-06-24T02:53:38.303Z,0
2017-06-24T02:54:18.845Z,0
2017-06-24T02:54:59.391Z,0
2017-06-24T02:55:39.929Z,0
2017-06-24T02:56:20.463Z,0
2017-06-24T02:57:00.999Z,0
2017-06-24T02:57:41.538Z,0
2017-06-24T02:58:22.079Z,0
2017-06-24T02:59:02.619Z,0
2017-06-24T02:59:43.156Z,0
2017-06-24T03:00:23.697Z,0
2017-06-24T03:01:04.248Z,0
2017-06-24T03:01:44.768Z,0
2017-06-24T03:02:25.399Z,0
2017-06-24T03:03:05.927Z,0
2017-06-24T03:03:46.470Z,0
2017-06-24T03:04:27.010Z,0
2017-06-24T03:05:07.561Z,0
2017-06-24T03:05:48.087Z,0
2017-06-24T03:06:28.622Z,0
2017-06-24T03:07:09.161Z,0
2017-06-24T03:07:49.701Z,0
2017-06-24T03:08:30.243Z,0
2017-06-24T03:09:10.790Z,0
2017-06-24T03:09:51.328Z,0
2017-06-24T03:10:31.866Z,0
2017-06-24T03:11:12.406Z,0
2017-06-24T03:11:52.946Z,0
2017-06-24T03:12:33.488Z,0
2017-06-24T03:13:14.029Z,0
2017-06-24T03:13:54.569Z,0
2017-06-24T03:14:35.109Z,0
2017-06-24T03:15:15.649Z,0
2017-06-24T03:15:56.187Z,0
2017-06-24T03:16:36.733Z,0
2017-06-24T03:17:17.274Z,0
2017-06-24T03:17:57.821Z,0
2017-06-24T03:18:38.353Z,5
2017-06-24T03:19:18.886Z,5
2017-06-24T03:19:59.426Z,5
2017-06-24T03:20:39.965Z,5
2017-06-24T03:21:20.507Z,5
2017-06-24T03:22:01.053Z,5
2017-06-24T03:22:41.617Z,5
2017-06-24T03:23:22.147Z,5
2017-06-24T03:24:02.693Z,5
2017-06-24T03:24:43.241Z,5
2017-06-24T03:25:23.781Z,5
2017-06-24T03:26:04.301Z,5
2017-06-24T03:26:44.842Z,5
2017-06-24T03:27:25.378Z,5
2017-06-24T03:28:05.922Z,5
2017-06-24T03:28:46.458Z,10
2017-06-24T03:29:26.994Z,10
2017-06-24T03:30:07.530Z,10
2017-06-24T03:30:48.065Z,10
2017-06-24T03:31:28.597Z,10
2017-06-24T03:32:09.137Z,10
2017-06-24T03:32:49.673Z,10
2017-06-24T03:33:30.218Z,10
2017-06-24T03:34:10.764Z,10
2017-06-24T03:34:51.305Z,10
2017-06-24T03:35:31.852Z,10
2017-06-24T03:36:12.359Z,10
2017-06-24T03:36:52.893Z,10
2017-06-24T03:37:33.429Z,15
2017-06-24T03:38:13.968Z,15
2017-06-24T03:38:54.512Z,15
2017-06-24T03:39:35.049Z,15
2017-06-24T03:40:15.593Z,15
2017-06-24T03:40:56.141Z,15
2017-06-24T03:41:36.675Z,15
2017-06-24T03:42:17.214Z,15
2017-06-24T03:42:57.753Z,15
2017-06-24T03:43:38.293Z,15
2017-06-24T03:44:18.834Z,15
2017-06-24T03:44:59.375Z,20
2017-06-24T03:45:39.915Z,20
2017-06-24T03:46:20.462Z,20
2017-06-24T03:47:00.996Z,20
2017-06-24T03:47:41.534Z,20
2017-06-24T03:48:22.071Z,20
2017-06-24T03:49:02.599Z,20
2017-06-24T03:49:43.138Z,20
2017-06-24T03:50:23.670Z,20
2017-06-24T03:51:04.223Z,20
2017-06-24T03:51:44.765Z,25
2017-06-24T03:52:25.301Z,25
2017-06-24T03:53:05.846Z,25
2017-06-24T03:53:46.387Z,25
2017-06-24T03:54:26.930Z,25
2017-06-24T03:55:07.468Z,30
2017-06-24T03:55:48.011Z,30
2017-06-24T03:56:28.583Z,30
2017-06-24T03:57:09.097Z,30
2017-06-24T03:57:49.639Z,30
2017-06-24T03:58:30.179Z,30
2017-06-24T03:59:10.717Z,30
2017-06-24T03:59:51.258Z,35
2017-06-24T04:00:31.812Z,35
2017-06-24T04:01:12.336Z,35
2017-06-24T04:01:52.875Z,35
2017-06-24T04:02:33.423Z,35
2017-06-24T04:03:13.964Z,35
2017-06-24T04:03:54.508Z,35
2017-06-24T04:04:35.037Z,35
2017-06-24T04:05:15.580Z,35
2017-06-24T04:05:56.118Z,35
2017-06-24T04:06:36.648Z,35
2017-06-24T04:07:17.182Z,35
2017-06-24T04:07:57.719Z,40
2017-06-24T04:08:38.257Z,45
2017-06-24T04:09:18.796Z,45
2017-06-24T04:09:59.329Z,45
2017-06-24T04:10:39.865Z,45
2017-06-24T04:11:20.385Z,45
2017-06-24T04:12:00.928Z,45
2017-06-24T04:12:41.468Z,45
2017-06-24T04:13:21.989Z,45
2017-06-24T04:14:02.532Z,45
2017-06-24T04:14:43.077Z,45
2017-06-24T04:15:23.620Z,45
2017-06-24T04:16:04.159Z,50
2017-06-24T04:16:44.704Z,50
2017-06-24T04:17:25.240Z,50
2017-06-24T04:18:05.777Z,50
2017-06-24T04:18:46.318Z,50
2017-06-24T04:19:26.856Z,45
2017-06-24T04:20:07.393Z,45
2017-06-24T04:20:47.935Z,50
2017-06-24T04:21:28.496Z,50
2017-06-24T04:22:09.039Z,50
2017-06-24T04:22:49.587Z,45
2017-06-24T04:23:30.128Z,50
2017-06-24T04:24:10.678Z,50
2017-06-24T04:24:51.335Z,50
2017-06-24T04:25:31.869Z,50
2017-06-24T04:26:12.413Z,55
2017-06-24T04:26:52.947Z,55
2017-06-24T04:27:33.488Z,60
2017-06-24T04:28:14.015Z,60
2017-06-24T04:28:54.573Z,60
2017-06-24T04:29:35.112Z,60
2017-06-24T04:30:15.662Z,60
2017-06-24T04:30:56.209Z,65
2017-06-24T04:31:36.739Z,65
2017-06-24T04:32:17.287Z,60
2017-06-24T04:32:57.837Z,60
2017-06-24T04:33:38.371Z,60
2017-06-24T04:34:18.902Z,60
2017-06-24T04:34:59.440Z,65
2017-06-24T04:35:39.982Z,65
2017-06-24T04:36:20.532Z,70
2017-06-24T04:37:01.078Z,70
2017-06-24T04:37:41.615Z,70
2017-06-24T04:38:22.154Z,70
2017-06-24T04:39:02.697Z,75
2017-06-24T04:39:43.234Z,80
2017-06-24T04:40:23.772Z,75
2017-06-24T04:41:04.315Z,75
2017-06-24T04:41:44.853Z,75
2017-06-24T04:42:25.386Z,75
2017-06-24T04:43:05.938Z,75
2017-06-24T04:43:46.472Z,75
2017-06-24T04:44:27.059Z,75
2017-06-24T04:45:07.537Z,75
2017-06-24T04:45:48.065Z,75
2017-06-24T04:46:28.613Z,75
2017-06-24T04:47:09.164Z,75
2017-06-24T04:47:49.684Z,70
2017-06-24T04:48:30.227Z,70
2017-06-24T04:49:10.776Z,75
2017-06-24T04:49:51.328Z,75
2017-06-24T04:50:31.866Z,75
2017-06-24T04:51:12.404Z,85
2017-06-24T04:51:52.942Z,85
2017-06-24T04:52:33.512Z,90
2017-06-24T04:53:14.037Z,90
2017-06-24T04:53:54.566Z,95
2017-06-24T04:54:35.108Z,95
2017-06-24T04:55:15.636Z,95
2017-06-24T04:55:56.162Z,95
2017-06-24T04:56:36.702Z,95
2017-06-24T04:57:17.220Z,95
2017-06-24T04:57:57.746Z,95
2017-06-24T04:58:38.274Z,100
2017-06-24T04:59:18.793Z,100
2017-06-24T04:59:59.322Z,100
2017-06-24T05:00:39.851Z,100
2017-06-24T05:01:20.385Z,100
2017-06-24T05:02:00.917Z,100
2017-06-24T05:02:41.468Z,100
2017-06-24T05:03:21.997Z,105
2017-06-24T05:04:02.535Z,110
2017-06-24T05:04:43.051Z,105
2017-06-24T05:05:23.586Z,110
2017-06-24T05:06:04.123Z,110
2017-06-24T05:06:44.651Z,110
2017-06-24T05:07:25.184Z,110
2017-06-24T05:08:05.724Z,105
2017-06-24T05:08:46.255Z,105
2017-06-24T05:09:26.811Z,105
2017-06-24T05:10:07.344Z,100
2017-06-24T05:10:47.874Z,100
2017-06-24T05:11:28.409Z,100
2017-06-24T05:12:08.936Z,100
2017-06-24T05:12:49.457Z,100
2017-06-24T05:13:29.987Z,100
2017-06-24T05:14:10.535Z,105
2017-06-24T05:14:51.077Z,105
2017-06-24T05:15:31.594Z,110
2017-06-24T05:16:12.102Z,105
2017-06-24T05:16:52.651Z,115
2017-06-24T05:17:33.194Z,115
2017-06-24T05:18:13.762Z,115
2017-06-24T05:18:54.300Z,115
2017-06-24T05:19:34.835Z,110
2017-06-24T05:20:15.376Z,105
2017-06-24T05:20:55.900Z,100
2017-06-24T05:21:36.436Z,105
2017-06-24T05:22:16.979Z,100
2017-06-24T05:22:57.508Z,100
2017-06-24T05:23:38.096Z,105
2017-06-24T05:24:18.641Z,105
2017-06-24T05:24:59.192Z,105
2017-06-24T05:25:39.710Z,110
2017-06-24T05:26:20.240Z,115
2017-06-24T05:27:00.765Z,115
2017-06-24T05:27:41.292Z,115
2017-06-24T05:28:21.807Z,125
2017-06-24T05:29:02.330Z,135
2017-06-24T05:29:42.855Z,135
2017-06-24T05:30:23.407Z,135
2017-06-24T05:31:03.952Z,140
2017-06-24T05:31:44.478Z,145
2017-06-24T05:32:25.025Z,145
2017-06-24T05:33:05.558Z,150
2017-06-24T05:33:46.093Z,150
2017-06-24T05:34:26.676Z,150
2017-06-24T05:35:07.206Z,160
2017-06-24T05:35:47.754Z,165
2017-06-24T05:36:28.293Z,170
2017-06-24T05:37:08.826Z,165
2017-06-24T05:37:49.382Z,165
2017-06-24T05:38:29.919Z,170
2017-06-24T05:39:10.460Z,165
2017-06-24T05:39:51.001Z,170
2017-06-24T05:40:31.541Z,180
2017-06-24T05:41:12.113Z,180
2017-06-24T05:41:52.656Z,185
2017-06-24T05:42:33.192Z,190
2017-06-24T05:43:13.741Z,200
2017-06-24T05:43:54.276Z,190
2017-06-24T05:44:34.819Z,200
2017-06-24T05:45:15.361Z,190
2017-06-24T05:45:55.878Z,200
2017-06-24T05:46:36.405Z,195
2017-06-24T05:47:16.924Z,200
2017-06-24T05:47:57.436Z,210
2017-06-24T05:48:37.979Z,200
2017-06-24T05:49:18.504Z,200
2017-06-24T05:49:59.030Z,205
2017-06-24T05:50:39.565Z,205
2017-06-24T05:51:20.029Z,205
2017-06-24T05:52:00.526Z,200
2017-06-24T05:52:41.254Z,195
2017-06-24T05:53:21.951Z,195
2017-06-24T05:54:02.459Z,195
2017-06-24T05:54:42.994Z,195
2017-06-24T05:55:23.461Z,190
2017-06-24T05:56:04.012Z,190
2017-06-24T05:56:44.551Z,195
2017-06-24T05:57:24.989Z,195
2017-06-24T05:58:05.552Z,195
2017-06-24T05:58:46.080Z,195
2017-06-24T05:59:26.547Z,195
2017-06-24T06:00:07.051Z,195
2017-06-24T06:00:47.558Z,200
2017-06-24T06:01:28.087Z,200
2017-06-24T06:02:09.255Z,205
2017-06-24T06:02:49.759Z,210
2017-06-24T06:03:30.269Z,215
2017-06-24T06:04:10.751Z,210
2017-06-24T06:04:51.260Z,210
2017-06-24T06:05:31.744Z,210
2017-06-24T06:06:12.293Z,215
2017-06-24T06:06:52.758Z,220
2017-06-24T06:07:33.329Z,215
2017-06-24T06:08:13.848Z,210
2017-06-24T06:08:54.352Z,210
2017-06-24T06:09:34.855Z,215
2017-06-24T06:10:15.606Z,225
2017-06-24T06:10:56.068Z,220
2017-06-24T06:11:36.559Z,220
2017-06-24T06:12:17.103Z,225
2017-06-24T06:12:57.665Z,220
2017-06-24T06:13:38.181Z,230
2017-06-24T06:14:18.743Z,230
2017-06-24T06:14:59.285Z,245
2017-06-24T06:15:39.808Z,245
2017-06-24T06:16:20.384Z,255
2017-06-24T06:17:00.987Z,250
2017-06-24T06:17:41.603Z,255
2017-06-24T06:18:22.225Z,255
2017-06-24T06:19:02.817Z,250
2017-06-24T06:19:43.350Z,250
2017-06-24T06:20:23.902Z,255
2017-06-24T06:21:04.486Z,265
2017-06-24T06:21:45.025Z,275
2017-06-24T06:22:25.560Z,285
2017-06-24T06:23:06.140Z,285
2017-06-24T06:23:46.665Z,280
2017-06-24T06:24:27.200Z,280
2017-06-24T06:25:07.743Z,285
2017-06-24T06:25:48.272Z,285
2017-06-24T06:26:28.814Z,285
2017-06-24T06:27:09.362Z,280
2017-06-24T06:27:49.910Z,280
2017-06-24T06:28:30.450Z,285
2017-06-24T06:29:10.979Z,295
2017-06-24T06:29:51.539Z,305
2017-06-24T06:30:32.078Z,305
2017-06-24T06:31:12.612Z,295
2017-06-24T06:31:53.140Z,305
2017-06-24T06:32:33.754Z,305
2017-06-24T06:33:14.312Z,320
2017-06-24T06:33:54.840Z,330
2017-06-24T06:34:35.386Z,335
2017-06-24T06:35:15.935Z,350
2017-06-24T06:35:56.483Z,350
2017-06-24T06:36:37.014Z,365
2017-06-24T06:37:17.577Z,375
2017-06-24T06:37:58.118Z,360
2017-06-24T06:38:38.700Z,355
2017-06-24T06:39:19.230Z,350
2017-06-24T06:39:59.791Z,370
2017-06-24T06:40:40.392Z,350
2017-06-24T06:41:20.937Z,410
2017-06-24T06:42:01.468Z,375
2017-06-24T06:42:42.031Z,370
2017-06-24T06:43:22.596Z,370
2017-06-24T06:44:03.131Z,365
2017-06-24T06:44:43.667Z,375
2017-06-24T06:45:24.203Z,370
2017-06-24T06:46:04.739Z,375
2017-06-24T06:46:45.283Z,370
2017-06-24T06:47:25.836Z,380
2017-06-24T06:48:06.370Z,385
2017-06-24T06:48:47.000Z,380
2017-06-24T06:49:27.547Z,430
2017-06-24T06:50:08.094Z,390
2017-06-24T06:50:48.642Z,395
2017-06-24T06:51:29.194Z,420
2017-06-24T06:52:09.735Z,400
2017-06-24T06:52:50.273Z,375
2017-06-24T06:53:30.825Z,380
2017-06-24T06:54:11.362Z,420
2017-06-24T06:54:51.912Z,415
2017-06-24T06:55:32.460Z,380
2017-06-24T06:56:13.001Z,380
2017-06-24T06:56:53.555Z,365
2017-06-24T06:57:34.098Z,380
2017-06-24T06:58:14.657Z,380
2017-06-24T06:58:55.177Z,365
2017-06-24T06:59:35.705Z,365
2017-06-24T07:00:16.248Z,375
2017-06-24T07:00:56.762Z,390
2017-06-24T07:01:37.309Z,390
2017-06-24T07:02:17.848Z,390
2017-06-24T07:02:58.373Z,380
2017-06-24T07:03:38.916Z,375
2017-06-24T07:04:19.461Z,375
2017-06-24T07:04:59.995Z,380
2017-06-24T07:05:40.549Z,375
2017-06-24T07:06:21.080Z,385
2017-06-24T07:07:01.628Z,395
2017-06-24T07:07:42.214Z,390
2017-06-24T07:08:22.768Z,400
2017-06-24T07:09:03.312Z,375
2017-06-24T07:09:43.910Z,380
2017-06-24T07:10:24.477Z,375
2017-06-24T07:11:05.023Z,375
2017-06-24T07:11:45.592Z,435
2017-06-24T07:12:26.071Z,420
2017-06-24T07:13:06.600Z,400
2017-06-24T07:13:47.151Z,370
2017-06-24T07:14:27.696Z,385
2017-06-24T07:15:08.240Z,365
2017-06-24T07:15:48.786Z,370
2017-06-24T07:16:29.335Z,405
2017-06-24T07:17:09.874Z,420
2017-06-24T07:17:50.418Z,440
2017-06-24T07:18:31.001Z,475
2017-06-24T07:19:11.539Z,460
2017-06-24T07:19:52.087Z,500
2017-06-24T07:20:32.634Z,470
2017-06-24T07:21:13.193Z,450
2017-06-24T07:21:53.736Z,465
2017-06-24T07:22:34.259Z,475
2017-06-24T07:23:14.815Z,460
2017-06-24T07:23:55.360Z,480
2017-06-24T07:24:35.895Z,450
2017-06-24T07:25:16.437Z,455
2017-06-24T07:25:56.975Z,485
2017-06-24T07:26:37.521Z,470
2017-06-24T07:27:18.057Z,475
2017-06-24T07:27:58.619Z,450
2017-06-24T07:28:39.134Z,435
2017-06-24T07:29:20.221Z,435
2017-06-24T07:30:00.457Z,440
2017-06-24T07:30:40.960Z,460
2017-06-24T07:31:21.498Z,435
2017-06-24T07:32:02.037Z,500
2017-06-24T07:32:42.578Z,530
2017-06-24T07:33:23.124Z,535
2017-06-24T07:34:03.749Z,470
2017-06-24T07:34:44.247Z,465
2017-06-24T07:35:24.803Z,475
2017-06-24T07:36:05.341Z,470
2017-06-24T07:36:45.889Z,445
2017-06-24T07:37:26.434Z,455
2017-06-24T07:38:07.690Z,450
2017-06-24T07:38:47.612Z,455
2017-06-24T07:39:28.256Z,545
2017-06-24T07:40:08.705Z,500
2017-06-24T07:40:49.280Z,500
2017-06-24T07:41:29.822Z,410
2017-06-24T07:42:10.365Z,420
2017-06-24T07:42:50.913Z,480
2017-06-24T07:43:31.452Z,810
2017-06-24T07:44:11.988Z,1250
2017-06-24T07:44:52.531Z,1295
2017-06-24T07:45:33.065Z,550
2017-06-24T07:46:13.610Z,2140
2017-06-24T07:46:54.156Z,2890
2017-06-24T07:47:34.676Z,2835
2017-06-24T07:48:15.206Z,2010
2017-06-24T07:48:55.787Z,2350
2017-06-24T07:49:36.259Z,530
2017-06-24T07:50:16.806Z,1420
2017-06-24T07:50:57.322Z,545
2017-06-24T07:51:37.851Z,495
2017-06-24T07:52:18.401Z,530
2017-06-24T07:52:58.945Z,635
2017-06-24T07:53:39.483Z,465
2017-06-24T07:54:20.015Z,470
2017-06-24T07:55:00.548Z,395
2017-06-24T07:55:41.082Z,365
2017-06-24T07:56:21.719Z,400
2017-06-24T07:57:02.285Z,470
2017-06-24T07:57:42.765Z,465
2017-06-24T07:58:23.279Z,460
2017-06-24T07:59:03.845Z,450
2017-06-24T07:59:44.386Z,385
2017-06-24T08:00:24.922Z,420
2017-06-24T08:01:05.474Z,465
2017-06-24T08:01:46.024Z,480
2017-06-24T08:02:26.573Z,500
2017-06-24T08:03:07.145Z,495
2017-06-24T08:03:47.681Z,590
2017-06-24T08:04:28.195Z,530
2017-06-24T08:05:08.735Z,560
2017-06-24T08:05:49.286Z,495
2017-06-24T08:06:29.802Z,390
2017-06-24T08:07:10.323Z,425
2017-06-24T08:07:50.891Z,535
2017-06-24T08:08:31.448Z,645
2017-06-24T08:09:11.990Z,810
2017-06-24T08:09:52.526Z,585
2017-06-24T08:10:33.066Z,540
2017-06-24T08:11:13.615Z,1195
2017-06-24T08:11:54.167Z,635
2017-06-24T08:12:34.711Z,380
2017-06-24T08:13:15.254Z,1895
2017-06-24T08:13:55.800Z,585
2017-06-24T08:14:36.393Z,3120
2017-06-24T08:15:16.921Z,720
2017-06-24T08:15:57.456Z,400
2017-06-24T08:16:38.006Z,2315
2017-06-24T08:17:18.545Z,600
2017-06-24T08:17:59.097Z,425
2017-06-24T08:18:39.635Z,405
2017-06-24T08:19:20.166Z,530
2017-06-24T08:20:00.702Z,3310
2017-06-24T08:20:41.290Z,3295
2017-06-24T08:21:21.804Z,3295
2017-06-24T08:22:02.326Z,2645
2017-06-24T08:22:42.850Z,660
2017-06-24T08:23:23.370Z,895
2017-06-24T08:24:03.913Z,1170
2017-06-24T08:24:44.422Z,505
2017-06-24T08:25:24.962Z,365
2017-06-24T08:26:05.484Z,355
2017-06-24T08:26:46.012Z,395
2017-06-24T08:27:26.522Z,3065
2017-06-24T08:28:07.056Z,1955
2017-06-24T08:28:47.608Z,3205
2017-06-24T08:29:28.119Z,3320
2017-06-24T08:30:08.658Z,3135
2017-06-24T08:30:49.209Z,3305
2017-06-24T08:31:29.764Z,3315
2017-06-24T08:32:10.313Z,2580
2017-06-24T08:32:50.860Z,2240
2017-06-24T08:33:31.415Z,2015
2017-06-24T08:34:11.940Z,640
2017-06-24T08:34:52.479Z,540
2017-06-24T08:35:33.023Z,475
2017-06-24T08:36:13.569Z,480
2017-06-24T08:36:54.116Z,430
2017-06-24T08:37:34.663Z,525
2017-06-24T08:38:15.212Z,375
2017-06-24T08:38:55.760Z,385
2017-06-24T08:39:36.308Z,580
2017-06-24T08:40:16.854Z,435
2017-06-24T08:40:57.396Z,395
2017-06-24T08:41:37.956Z,1665
2017-06-24T08:42:18.499Z,3475
2017-06-24T08:42:59.091Z,3550
2017-06-24T08:43:39.636Z,3600
2017-06-24T08:44:20.174Z,1500
2017-06-24T08:45:00.720Z,1495
2017-06-24T08:45:41.264Z,620
2017-06-24T08:46:21.807Z,795
2017-06-24T08:47:02.356Z,2840
2017-06-24T08:47:42.906Z,680
2017-06-24T08:48:23.453Z,500
2017-06-24T08:49:03.991Z,575
2017-06-24T08:49:44.541Z,555
2017-06-24T08:50:25.091Z,575
2017-06-24T08:51:05.636Z,565
2017-06-24T08:51:46.184Z,545
2017-06-24T08:52:26.720Z,2995
2017-06-24T08:53:07.264Z,630
2017-06-24T08:53:48.832Z,425
2017-06-24T08:54:29.997Z,1140
2017-06-24T08:55:10.524Z,1675
2017-06-24T08:55:51.041Z,3920
2017-06-24T08:56:31.584Z,3925
2017-06-24T08:57:12.125Z,3755
2017-06-24T08:57:52.657Z,2975
2017-06-24T08:58:33.242Z,3475
2017-06-24T08:59:13.730Z,3850
2017-06-24T08:59:54.267Z,1815
2017-06-24T09:00:34.806Z,3775
2017-06-24T09:01:15.358Z,3785
2017-06-24T09:01:55.905Z,1175
2017-06-24T09:02:36.454Z,2550
2017-06-24T09:03:16.997Z,2320
2017-06-24T09:03:57.546Z,3940
2017-06-24T09:04:38.086Z,3580
2017-06-24T09:05:18.633Z,1620
2017-06-24T09:05:59.176Z,1100
2017-06-24T09:06:39.734Z,1130
2017-06-24T09:07:20.265Z,650
2017-06-24T09:08:00.806Z,585
2017-06-24T09:08:41.346Z,540
2017-06-24T09:09:21.895Z,595
2017-06-24T09:10:02.436Z,565
2017-06-24T09:10:42.979Z,585
2017-06-24T09:11:23.502Z,540
2017-06-24T09:12:04.057Z,425
2017-06-24T09:12:44.573Z,420
2017-06-24T09:13:25.165Z,465
2017-06-24T09:14:05.710Z,910
2017-06-24T09:14:46.238Z,735
2017-06-24T09:15:26.789Z,480
2017-06-24T09:16:07.316Z,485
2017-06-24T09:16:47.859Z,525
2017-06-24T09:17:28.394Z,485
2017-06-24T09:18:08.934Z,470
2017-06-24T09:18:49.480Z,445
2017-06-24T09:19:30.025Z,485
2017-06-24T09:20:10.579Z,545
2017-06-24T09:20:51.150Z,555
2017-06-24T09:21:31.684Z,525
2017-06-24T09:22:12.232Z,635
2017-06-24T09:22:52.781Z,595
2017-06-24T09:23:33.328Z,690
2017-06-24T09:24:13.870Z,695
2017-06-24T09:24:54.418Z,635
2017-06-24T09:25:34.975Z,610
2017-06-24T09:26:15.516Z,710
2017-06-24T09:26:56.050Z,675
2017-06-24T09:27:36.602Z,705
2017-06-24T09:28:17.152Z,715
2017-06-24T09:28:57.704Z,570
2017-06-24T09:29:38.254Z,555
2017-06-24T09:30:18.795Z,590
2017-06-24T09:30:59.341Z,670
2017-06-24T09:31:39.869Z,555
2017-06-24T09:32:20.409Z,390
2017-06-24T09:33:00.950Z,375
2017-06-24T09:33:41.491Z,450
2017-06-24T09:34:22.029Z,495
2017-06-24T09:35:02.571Z,480